Time;durP1;ratioP1;P1;durP2;ratioP2;P2;SDS_P1;SDS_P2;PMS_P1;PMS_P2;Temp;Humidity;BMP_temperature;BMP_pressure;BME280_temperature;BME280_humidity;BME280_pressure;Samples;Min_cycle;Max_cycle;Signal;HPM_P1;HPM_P2
2023/07/06 00:01:02;;;;;;;3.20;2.35;;;13.30;99.90;;;;;;4947415;28;20750;-81
2023/07/06 00:03:28;;;;;;;2.85;2.42;;;13.30;99.90;;;;;;4939521;29;20105;-79
2023/07/06 00:05:54;;;;;;;3.42;2.33;;;13.30;99.90;;;;;;4947181;28;20090;-78
2023/07/06 00:08:20;;;;;;;5.22;2.20;;;13.30;99.90;;;;;;4947027;28;20079;-78
2023/07/06 00:10:50;;;;;;;4.18;1.98;;;13.30;99.90;;;;;;4946567;28;20130;-78
2023/07/06 00:13:17;;;;;;;2.85;1.70;;;13.30;99.90;;;;;;4945434;28;20083;-81
2023/07/06 00:15:43;;;;;;;5.20;2.38;;;13.30;99.90;;;;;;4945487;29;20086;-81
2023/07/06 00:18:10;;;;;;;2.28;1.83;;;13.30;99.90;;;;;;4929732;29;20409;-77
2023/07/06 00:20:37;;;;;;;4.38;3.25;;;13.30;99.90;;;;;;4946920;28;20047;-81
2023/07/06 00:23:08;;;;;;;3.38;2.53;;;13.20;99.90;;;;;;4946342;28;20122;-81
2023/07/06 00:25:34;;;;;;;5.82;2.40;;;13.20;99.90;;;;;;4945042;29;20555;-77
2023/07/06 00:28:02;;;;;;;4.25;1.83;;;13.20;99.90;;;;;;4945769;28;20410;-79
2023/07/06 00:33:09;;;;;;;7.57;2.38;;;13.20;99.90;;;;;;4944791;29;20059;-80
2023/07/06 00:35:35;;;;;;;4.80;2.17;;;13.20;99.90;;;;;;4946613;28;20040;-81
2023/07/06 00:38:02;;;;;;;3.15;1.90;;;13.20;99.90;;;;;;4944848;29;20071;-81
2023/07/06 00:40:32;;;;;;;3.63;2.20;;;13.20;99.90;;;;;;4945207;29;20058;-80
2023/07/06 00:42:59;;;;;;;6.13;2.22;;;13.20;99.90;;;;;;4944240;29;20043;-78
2023/07/06 00:45:25;;;;;;;3.92;2.05;;;13.20;99.90;;;;;;4946612;28;20043;-77
2023/07/06 00:47:56;;;;;;;6.72;2.60;;;13.20;99.90;;;;;;4944998;29;20046;-79
2023/07/06 00:50:24;;;;;;;4.53;2.58;;;13.20;99.90;;;;;;4944936;29;20051;-80
2023/07/06 00:52:55;;;;;;;8.60;3.30;;;13.20;99.90;;;;;;4946231;28;20058;-81
2023/07/06 00:55:25;;;;;;;2.60;2.05;;;13.20;99.90;;;;;;4946184;28;20043;-80
2023/07/06 00:58:00;;;;;;;7.68;2.33;;;13.20;99.90;;;;;;4945163;28;20050;-79
2023/07/06 01:00:25;;;;;;;5.15;2.20;;;13.20;99.90;;;;;;4920584;29;20098;-78
2023/07/06 01:02:55;;;;;;;3.80;2.58;;;13.20;99.90;;;;;;4944991;29;20047;-80
2023/07/06 01:05:23;;;;;;;4.50;2.15;;;13.20;99.90;;;;;;4944777;29;20079;-78
2023/07/06 01:07:51;;;;;;;5.00;3.53;;;13.20;99.90;;;;;;4944876;29;20836;-79
2023/07/06 01:10:18;;;;;;;4.47;2.30;;;13.20;99.90;;;;;;4945584;28;20114;-80
2023/07/06 01:12:43;;;;;;;3.50;2.30;;;13.20;99.90;;;;;;4943377;29;20067;-77
2023/07/06 01:15:10;;;;;;;4.05;2.42;;;13.10;99.90;;;;;;4944626;29;20436;-80
2023/07/06 01:17:53;;;;;;;4.28;2.58;;;13.10;99.90;;;;;;4944697;29;20521;-80
2023/07/06 01:20:21;;;;;;;5.18;2.50;;;13.10;99.90;;;;;;4945046;28;20530;-77
2023/07/06 01:23:12;;;;;;;5.70;2.42;;;13.00;99.90;;;;;;4944640;29;20494;-80
2023/07/06 01:25:59;;;;;;;5.32;2.80;;;13.00;99.90;;;;;;4944311;29;20143;-80
2023/07/06 01:28:45;;;;;;;4.07;2.15;;;13.00;99.90;;;;;;4945010;29;20091;-80
2023/07/06 01:31:23;;;;;;;2.83;1.83;;;13.00;99.90;;;;;;4928319;29;20078;-79
2023/07/06 01:34:13;;;;;;;5.38;3.50;;;13.00;99.90;;;;;;4944357;29;20051;-80
2023/07/06 01:37:06;;;;;;;3.30;2.28;;;13.00;99.90;;;;;;4946694;28;20043;-79
2023/07/06 01:39:32;;;;;;;5.88;2.50;;;13.00;99.90;;;;;;4948466;29;20051;-80
2023/07/06 01:42:10;;;;;;;4.18;2.28;;;13.00;99.90;;;;;;4947228;29;20568;-78
2023/07/06 01:44:46;;;;;;;7.05;2.40;;;13.00;99.90;;;;;;4929541;29;20118;-81
2023/07/06 01:47:14;;;;;;;3.67;2.17;;;13.00;99.90;;;;;;4943759;29;20039;-81
2023/07/06 01:49:40;;;;;;;3.47;2.40;;;13.10;99.90;;;;;;4949790;28;20058;-80
2023/07/06 01:52:18;;;;;;;5.65;3.08;;;13.00;99.90;;;;;;4949019;28;20071;-78
2023/07/06 01:55:20;;;;;;;3.03;2.20;;;13.10;99.90;;;;;;4949699;28;20339;-80
2023/07/06 01:58:17;;;;;;;4.40;2.17;;;13.10;99.90;;;;;;4946685;29;20413;-80
2023/07/06 02:00:49;;;;;;;7.18;2.55;;;13.10;99.90;;;;;;4949149;28;20091;-80
2023/07/06 02:03:16;;;;;;;2.45;1.92;;;13.10;99.90;;;;;;4947612;29;20051;-80
2023/07/06 02:05:43;;;;;;;3.92;2.38;;;13.10;99.90;;;;;;4948786;28;20047;-80
2023/07/06 02:08:10;;;;;;;2.97;2.28;;;13.10;99.90;;;;;;4930559;29;20039;-80
2023/07/06 02:10:36;;;;;;;3.03;2.10;;;13.10;99.90;;;;;;4929377;29;20103;-80
2023/07/06 02:13:03;;;;;;;7.00;2.50;;;13.10;99.90;;;;;;4937957;28;20063;-80
2023/07/06 02:15:30;;;;;;;3.35;2.63;;;13.10;99.90;;;;;;4949432;28;20043;-80
2023/07/06 02:17:56;;;;;;;3.30;1.90;;;13.10;99.90;;;;;;4949069;28;20047;-80
2023/07/06 02:20:22;;;;;;;3.67;2.20;;;13.00;99.90;;;;;;4947099;29;20047;-80
2023/07/06 02:22:49;;;;;;;4.68;2.85;;;13.00;99.90;;;;;;4931728;29;20043;-80
2023/07/06 02:25:15;;;;;;;3.45;2.35;;;13.00;99.90;;;;;;4948847;28;20043;-80
2023/07/06 02:27:40;;;;;;;4.32;2.03;;;13.00;99.90;;;;;;4947466;28;20080;-79
2023/07/06 02:30:07;;;;;;;4.85;2.20;;;12.90;99.90;;;;;;4931434;29;20047;-79
2023/07/06 02:32:33;;;;;;;4.32;2.28;;;12.90;99.90;;;;;;4947462;29;20058;-78
2023/07/06 02:34:59;;;;;;;5.15;2.17;;;12.90;99.90;;;;;;4947406;29;20086;-78
2023/07/06 02:37:25;;;;;;;4.72;2.47;;;12.90;99.90;;;;;;4949527;29;20789;-79
2023/07/06 02:39:51;;;;;;;2.95;2.20;;;12.90;99.90;;;;;;4947559;29;20035;-79
2023/07/06 02:42:18;;;;;;;6.30;2.35;;;12.90;99.90;;;;;;4947200;29;20122;-80
2023/07/06 02:44:44;;;;;;;3.67;2.28;;;12.90;99.90;;;;;;4947016;29;20062;-81
2023/07/06 02:47:10;;;;;;;2.53;1.85;;;12.90;99.90;;;;;;4946289;28;20498;-77
2023/07/06 02:49:36;;;;;;;3.80;2.33;;;12.80;99.90;;;;;;4947166;29;20043;-81
2023/07/06 02:52:02;;;;;;;3.13;2.05;;;12.80;99.90;;;;;;4947933;28;20039;-81
2023/07/06 02:54:28;;;;;;;7.63;3.28;;;12.80;99.90;;;;;;4948964;28;20039;-81
2023/07/06 02:56:56;;;;;;;3.72;1.90;;;12.70;99.90;;;;;;4947298;28;20047;-81
2023/07/06 02:59:22;;;;;;;3.70;2.25;;;12.70;99.90;;;;;;4946259;29;20067;-81
2023/07/06 03:01:47;;;;;;;2.13;1.67;;;12.70;99.90;;;;;;4946726;29;20043;-78
2023/07/06 03:04:15;;;;;;;4.45;2.33;;;12.70;99.90;;;;;;4948397;28;20043;-80
2023/07/06 03:06:41;;;;;;;2.63;2.13;;;12.70;99.90;;;;;;4948092;28;20043;-78
2023/07/06 03:09:09;;;;;;;2.35;1.85;;;12.70;99.90;;;;;;4947089;29;20098;-79
2023/07/06 03:11:35;;;;;;;4.57;1.85;;;12.70;99.90;;;;;;4947292;28;20039;-80
2023/07/06 03:14:02;;;;;;;3.05;2.00;;;12.70;99.90;;;;;;4946194;29;20059;-80
2023/07/06 03:16:29;;;;;;;7.80;2.58;;;12.70;99.90;;;;;;4947078;29;20031;-81
2023/07/06 03:18:54;;;;;;;4.63;2.28;;;12.60;99.90;;;;;;4947271;29;20047;-79
2023/07/06 03:21:20;;;;;;;2.78;2.25;;;12.70;99.90;;;;;;4947368;28;20054;-81
2023/07/06 03:23:49;;;;;;;3.28;2.15;;;12.70;99.90;;;;;;4948069;28;20047;-81
2023/07/06 03:26:15;;;;;;;2.55;1.92;;;12.70;99.90;;;;;;4946626;28;20507;-79
2023/07/06 03:28:41;;;;;;;5.57;2.78;;;12.80;99.90;;;;;;4947323;28;20043;-81
2023/07/06 03:31:07;;;;;;;5.95;3.17;;;12.70;99.90;;;;;;4947298;29;20036;-78
2023/07/06 03:33:32;;;;;;;4.07;2.35;;;12.80;99.90;;;;;;4930573;29;20122;-81
2023/07/06 03:35:58;;;;;;;4.18;2.47;;;12.80;99.90;;;;;;4948035;28;20039;-80
2023/07/06 03:38:29;;;;;;;3.17;2.00;;;12.80;99.90;;;;;;4945789;29;20082;-80
2023/07/06 03:40:56;;;;;;;4.22;2.58;;;12.90;99.90;;;;;;4946907;28;20529;-79
2023/07/06 03:43:22;;;;;;;6.25;2.60;;;12.90;99.90;;;;;;4947145;29;20047;-81
2023/07/06 03:45:48;;;;;;;4.38;2.75;;;12.90;99.90;;;;;;4947462;29;20721;-81
2023/07/06 03:48:17;;;;;;;6.97;2.65;;;12.90;99.90;;;;;;4947398;28;20059;-80
2023/07/06 03:50:43;;;;;;;7.45;3.00;;;13.00;99.90;;;;;;4947456;29;20134;-81
2023/07/06 03:53:10;;;;;;;7.60;2.42;;;13.00;99.90;;;;;;4945482;29;20137;-81
2023/07/06 03:55:37;;;;;;;7.57;2.80;;;13.10;99.90;;;;;;4946520;28;20542;-80
2023/07/06 03:58:03;;;;;;;4.43;2.25;;;13.10;99.90;;;;;;4946229;28;20051;-80
2023/07/06 04:00:28;;;;;;;7.68;3.97;;;13.10;99.90;;;;;;4945679;29;20482;-80
2023/07/06 04:02:56;;;;;;;3.72;2.15;;;13.10;99.90;;;;;;4947260;29;20054;-80
2023/07/06 04:05:32;;;;;;;4.38;2.90;;;13.10;99.90;;;;;;4929722;29;20043;-79
2023/07/06 04:07:59;;;;;;;5.03;2.92;;;13.10;99.90;;;;;;4945965;29;20486;-80
2023/07/06 04:10:27;;;;;;;5.15;3.35;;;13.10;99.90;;;;;;4942131;29;20048;-80
2023/07/06 04:12:53;;;;;;;4.30;2.80;;;13.10;99.90;;;;;;4944189;28;20085;-80
2023/07/06 04:15:19;;;;;;;5.90;2.65;;;13.10;99.90;;;;;;4944859;29;20478;-80
2023/07/06 04:17:47;;;;;;;3.88;2.55;;;13.10;99.90;;;;;;4944160;29;20129;-77
2023/07/06 04:20:18;;;;;;;3.97;2.25;;;13.10;99.90;;;;;;4945151;29;20039;-78
2023/07/06 04:22:49;;;;;;;3.25;2.42;;;13.10;99.90;;;;;;4945304;29;20054;-78
2023/07/06 04:25:19;;;;;;;6.47;2.42;;;13.20;99.90;;;;;;4945327;28;20035;-77
2023/07/06 04:27:46;;;;;;;5.43;2.67;;;13.20;99.90;;;;;;4946345;28;20051;-79
2023/07/06 04:30:12;;;;;;;5.10;2.88;;;13.20;99.90;;;;;;4946168;28;20141;-78
2023/07/06 04:32:38;;;;;;;5.03;2.88;;;13.20;99.90;;;;;;4944421;29;20051;-79
2023/07/06 04:35:06;;;;;;;8.55;3.08;;;13.20;99.90;;;;;;4945924;29;20043;-80
2023/07/06 04:37:32;;;;;;;5.78;3.08;;;13.20;99.90;;;;;;4946042;28;20458;-79
2023/07/06 04:39:59;;;;;;;6.47;3.22;;;13.20;99.90;;;;;;4945113;29;20075;-79
2023/07/06 04:42:27;;;;;;;7.65;2.72;;;13.20;99.90;;;;;;4943650;29;20514;-79
2023/07/06 04:44:56;;;;;;;8.00;3.05;;;13.20;99.90;;;;;;4945022;29;20054;-78
2023/07/06 04:47:23;;;;;;;6.50;2.97;;;13.20;99.90;;;;;;4944542;29;20051;-81
2023/07/06 04:49:52;;;;;;;7.28;3.53;;;13.30;99.90;;;;;;4944517;29;20051;-80
2023/07/06 04:52:18;;;;;;;6.20;2.97;;;13.30;99.90;;;;;;4946058;28;20047;-80
2023/07/06 04:54:44;;;;;;;6.55;3.10;;;13.30;99.90;;;;;;4954034;28;20114;-80
2023/07/06 04:57:16;;;;;;;11.55;3.10;;;13.40;99.90;;;;;;4946562;28;20130;-81
2023/07/06 04:59:42;;;;;;;4.50;2.58;;;13.40;99.90;;;;;;4946595;28;20108;-80
2023/07/06 05:02:10;;;;;;;10.20;3.70;;;13.40;99.90;;;;;;4944091;28;20410;-80
2023/07/06 05:04:40;;;;;;;8.93;3.97;;;13.40;99.90;;;;;;4953659;28;20043;-80
2023/07/06 05:07:06;;;;;;;6.45;3.40;;;13.50;99.90;;;;;;4943277;29;20039;-82
2023/07/06 05:09:32;;;;;;;8.00;3.30;;;13.50;99.90;;;;;;4943975;28;20035;-81
2023/07/06 05:11:58;;;;;;;7.45;3.20;;;13.50;99.90;;;;;;4944144;29;20035;-78
2023/07/06 05:14:24;;;;;;;5.70;3.53;;;13.60;99.90;;;;;;4940278;28;20402;-80
2023/07/06 05:16:50;;;;;;;5.88;3.58;;;13.60;99.90;;;;;;4956672;28;20408;-81
2023/07/06 05:19:16;;;;;;;7.03;3.15;;;13.70;99.90;;;;;;4945425;28;20035;-78
2023/07/06 05:21:42;;;;;;;10.27;3.78;;;13.70;99.90;;;;;;4933016;29;20036;-81
2023/07/06 05:24:08;;;;;;;6.43;3.67;;;13.70;99.90;;;;;;4925924;29;20075;-81
2023/07/06 05:26:34;;;;;;;9.68;3.42;;;13.80;99.90;;;;;;4929126;29;20043;-80
2023/07/06 05:28:59;;;;;;;9.00;3.90;;;13.80;99.90;;;;;;4942253;28;20501;-79
2023/07/06 05:31:26;;;;;;;9.40;4.03;;;13.90;99.90;;;;;;4943707;29;20039;-78
2023/07/06 05:33:52;;;;;;;9.23;3.92;;;13.90;99.90;;;;;;4926344;29;20090;-80
2023/07/06 05:36:17;;;;;;;8.93;3.72;;;14.00;99.90;;;;;;4943405;29;20079;-78
2023/07/06 05:38:43;;;;;;;13.48;4.60;;;14.10;99.90;;;;;;4944579;28;20509;-79
2023/07/06 05:41:09;;;;;;;9.70;4.15;;;14.10;99.90;;;;;;4941189;29;20081;-80
2023/07/06 05:43:34;;;;;;;8.32;4.28;;;14.20;99.90;;;;;;4944073;29;20050;-78
2023/07/06 05:46:00;;;;;;;12.77;4.30;;;14.20;99.90;;;;;;4942940;29;20054;-78
2023/07/06 05:48:25;;;;;;;12.43;4.90;;;14.30;99.90;;;;;;4944548;28;20477;-80
2023/07/06 05:50:51;;;;;;;9.95;4.05;;;14.40;99.90;;;;;;4947431;28;20489;-79
2023/07/06 05:53:17;;;;;;;6.95;3.40;;;14.40;99.90;;;;;;4944486;29;20839;-78
2023/07/06 05:55:43;;;;;;;11.05;4.70;;;14.50;99.90;;;;;;4944646;28;20062;-80
2023/07/06 05:58:11;;;;;;;8.55;3.85;;;14.60;99.90;;;;;;4943204;29;20114;-80
2023/07/06 06:00:39;;;;;;;11.68;3.83;;;14.60;99.90;;;;;;4944221;29;20043;-79
2023/07/06 06:03:05;;;;;;;13.93;4.95;;;14.60;99.90;;;;;;4944185;29;20079;-80
2023/07/06 06:05:31;;;;;;;13.05;5.28;;;14.70;99.90;;;;;;4944177;29;20039;-80
2023/07/06 06:07:58;;;;;;;14.80;4.60;;;14.80;99.90;;;;;;4944760;29;20502;-80
2023/07/06 06:10:24;;;;;;;15.35;4.68;;;14.80;99.90;;;;;;4941706;29;20062;-83
2023/07/06 06:12:49;;;;;;;6.70;3.17;;;14.90;99.90;;;;;;4940774;28;20059;-80
2023/07/06 06:15:23;;;;;;;14.63;5.10;;;14.90;99.90;;;;;;4926073;29;20054;-83
2023/07/06 06:17:50;;;;;;;10.38;4.47;;;14.90;99.90;;;;;;4921637;29;20191;-82
2023/07/06 06:20:16;;;;;;;16.27;5.43;;;14.90;99.90;;;;;;4943671;29;20036;-77
2023/07/06 06:22:43;;;;;;;13.05;5.32;;;15.00;99.90;;;;;;4946739;28;20051;-80
2023/07/06 06:25:09;;;;;;;13.10;4.38;;;15.00;99.90;;;;;;4947379;29;20043;-80
2023/07/06 06:27:35;;;;;;;8.95;3.97;;;15.00;99.90;;;;;;4947729;29;20043;-78
2023/07/06 06:30:00;;;;;;;9.60;3.42;;;15.10;99.90;;;;;;4948570;28;20047;-74
2023/07/06 06:32:26;;;;;;;8.00;3.28;;;15.20;99.90;;;;;;4948671;29;20042;-77
2023/07/06 06:34:52;;;;;;;6.20;3.40;;;15.20;99.90;;;;;;4948656;28;20076;-77
2023/07/06 06:37:18;;;;;;;8.98;3.15;;;15.30;99.90;;;;;;4948227;28;20043;-75
2023/07/06 06:39:44;;;;;;;3.97;2.67;;;15.30;99.90;;;;;;4948086;29;20463;-76
2023/07/06 06:42:13;;;;;;;7.53;2.88;;;15.40;99.90;;;;;;4945974;29;20498;-76
2023/07/06 06:44:40;;;;;;;5.55;2.78;;;15.40;99.90;;;;;;4948230;28;20054;-77
2023/07/06 06:47:06;;;;;;;3.95;2.00;;;15.50;99.90;;;;;;4945750;29;20146;-75
2023/07/06 06:49:35;;;;;;;4.82;2.60;;;15.50;99.90;;;;;;4947509;28;20043;-75
2023/07/06 06:52:03;;;;;;;6.05;2.30;;;15.60;99.90;;;;;;4947458;28;20039;-76
2023/07/06 06:54:30;;;;;;;5.35;2.25;;;15.60;99.90;;;;;;4947813;28;20122;-75
2023/07/06 06:56:56;;;;;;;5.68;1.98;;;15.60;99.90;;;;;;4945927;29;20138;-75
2023/07/06 06:59:21;;;;;;;5.85;2.38;;;15.70;99.90;;;;;;4946837;28;20459;-76
2023/07/06 07:01:50;;;;;;;3.03;1.75;;;15.70;99.90;;;;;;4946687;28;20047;-75
2023/07/06 07:04:16;;;;;;;4.07;1.90;;;15.80;99.90;;;;;;4947450;28;20405;-75
2023/07/06 07:06:42;;;;;;;2.78;1.23;;;15.80;99.90;;;;;;4947693;28;20042;-75
2023/07/06 07:09:12;;;;;;;3.10;1.50;;;15.80;99.90;;;;;;4945321;29;20047;-76
2023/07/06 07:11:38;;;;;;;4.20;1.60;;;15.90;99.90;;;;;;4944848;29;20513;-76
2023/07/06 07:14:07;;;;;;;4.90;1.42;;;15.90;99.90;;;;;;4946656;28;20077;-76
2023/07/06 07:16:34;;;;;;;7.13;2.47;;;16.00;99.90;;;;;;4946989;28;20229;-76
2023/07/06 07:19:04;;;;;;;3.17;1.38;;;16.00;99.90;;;;;;4947115;28;20031;-76
2023/07/06 07:21:29;;;;;;;2.35;0.93;;;16.10;99.90;;;;;;4947262;28;20482;-75
2023/07/06 07:23:55;;;;;;;3.17;1.23;;;16.10;99.90;;;;;;4942075;28;20040;-76
2023/07/06 07:26:23;;;;;;;1.55;1.35;;;16.10;99.90;;;;;;4945219;29;20038;-75
2023/07/06 07:28:50;;;;;;;4.10;1.50;;;16.10;99.90;;;;;;4940428;29;20583;-75
2023/07/06 07:31:21;;;;;;;1.20;0.95;;;16.20;99.90;;;;;;4927386;29;20040;-75
2023/07/06 07:33:47;;;;;;;1.63;0.85;;;16.20;99.90;;;;;;4927943;29;20091;-75
2023/07/06 07:36:18;;;;;;;2.72;1.20;;;16.30;99.90;;;;;;4939529;29;20127;-76
2023/07/06 07:38:46;;;;;;;2.38;1.02;;;16.30;99.90;;;;;;4943168;29;20134;-75
2023/07/06 07:41:13;;;;;;;0.93;0.60;;;16.40;99.90;;;;;;4943668;28;20513;-76
2023/07/06 07:43:42;;;;;;;1.13;0.90;;;16.50;99.90;;;;;;4946332;29;20804;-75
2023/07/06 07:46:11;;;;;;;1.10;1.00;;;16.40;99.90;;;;;;4947371;29;20052;-76
2023/07/06 07:48:39;;;;;;;1.88;1.33;;;16.40;99.90;;;;;;4947939;28;20062;-77
2023/07/06 07:51:11;;;;;;;2.88;1.02;;;16.40;99.90;;;;;;4947204;28;20462;-76
2023/07/06 07:53:39;;;;;;;2.25;0.93;;;16.40;99.90;;;;;;4947323;28;20050;-76
2023/07/06 07:56:06;;;;;;;2.58;1.48;;;16.40;99.90;;;;;;4944452;29;20143;-77
2023/07/06 07:58:33;;;;;;;4.00;1.20;;;16.50;99.90;;;;;;4946308;28;20047;-77
2023/07/06 08:01:00;;;;;;;2.20;1.38;;;16.50;99.90;;;;;;4946788;28;20070;-77
2023/07/06 08:03:27;;;;;;;3.85;1.33;;;16.60;99.90;;;;;;4946620;28;20058;-76
2023/07/06 08:05:53;;;;;;;2.20;1.50;;;16.70;99.90;;;;;;4945011;28;20040;-76
2023/07/06 08:08:22;;;;;;;1.63;1.08;;;16.70;99.90;;;;;;4954669;28;20520;-77
2023/07/06 08:10:47;;;;;;;5.32;1.13;;;16.80;99.90;;;;;;4964884;28;20085;-76
2023/07/06 08:13:13;;;;;;;1.38;0.82;;;16.80;99.90;;;;;;4948355;28;20079;-77
2023/07/06 08:15:39;;;;;;;3.08;1.30;;;16.80;99.90;;;;;;4929269;29;20724;-77
2023/07/06 08:18:09;;;;;;;1.98;1.35;;;16.80;99.90;;;;;;4944684;29;20050;-76
2023/07/06 08:20:35;;;;;;;2.95;1.00;;;16.80;99.90;;;;;;4944969;28;20046;-76
2023/07/06 08:23:11;;;;;;;1.75;0.95;;;16.80;99.90;;;;;;4944972;28;20494;-76
2023/07/06 08:25:41;;;;;;;4.22;0.80;;;16.90;99.90;;;;;;4943818;29;20043;-76
2023/07/06 08:28:09;;;;;;;1.77;0.90;;;16.90;99.90;;;;;;4945292;28;20086;-76
2023/07/06 08:30:37;;;;;;;3.90;1.35;;;16.90;99.90;;;;;;4945619;28;20449;-76
2023/07/06 08:33:04;;;;;;;1.15;0.90;;;17.00;99.90;;;;;;4945079;28;20070;-76
2023/07/06 08:35:30;;;;;;;1.63;1.17;;;17.00;99.90;;;;;;4944482;29;20046;-76
2023/07/06 08:37:57;;;;;;;2.30;0.90;;;17.10;99.90;;;;;;4945665;28;20058;-76
2023/07/06 08:40:30;;;;;;;1.63;1.20;;;17.10;99.90;;;;;;4934747;29;20066;-76
2023/07/06 08:42:57;;;;;;;2.58;1.10;;;17.20;99.90;;;;;;4940167;29;20078;-76
2023/07/06 08:45:30;;;;;;;1.38;0.98;;;17.20;99.90;;;;;;4943379;28;20043;-76
2023/07/06 08:47:56;;;;;;;1.63;1.13;;;17.20;99.90;;;;;;4945307;28;20252;-76
2023/07/06 08:50:31;;;;;;;1.38;0.90;;;17.20;99.90;;;;;;4943629;29;20043;-76
2023/07/06 08:52:57;;;;;;;2.17;1.30;;;17.30;99.90;;;;;;4945192;28;20047;-76
2023/07/06 08:55:24;;;;;;;2.67;1.42;;;17.30;99.90;;;;;;4942612;29;20102;-76
2023/07/06 08:57:51;;;;;;;2.38;1.00;;;17.30;99.90;;;;;;4944921;28;20047;-76
2023/07/06 09:00:22;;;;;;;0.93;0.80;;;17.30;99.90;;;;;;4944635;29;20039;-76
2023/07/06 09:03:05;;;;;;;0.90;0.90;;;17.40;99.90;;;;;;4944952;28;20043;-76
2023/07/06 09:05:33;;;;;;;1.73;0.88;;;17.50;99.90;;;;;;4943718;29;20405;-76
2023/07/06 09:08:00;;;;;;;1.38;1.00;;;17.50;99.90;;;;;;4945129;28;20051;-76
2023/07/06 09:10:31;;;;;;;3.95;1.90;;;17.50;99.90;;;;;;4942872;29;20058;-76
2023/07/06 09:13:25;;;;;;;1.38;1.00;;;17.50;99.90;;;;;;4944740;28;20055;-76
2023/07/06 09:16:07;;;;;;;1.42;0.80;;;17.50;99.90;;;;;;4944793;28;20525;-76
2023/07/06 09:18:33;;;;;;;3.17;1.17;;;17.50;99.90;;;;;;4943462;29;20487;-76
2023/07/06 09:21:01;;;;;;;3.92;1.15;;;17.50;99.90;;;;;;4944876;29;20226;-76
2023/07/06 09:23:26;;;;;;;1.52;1.20;;;17.60;99.90;;;;;;4943606;29;20342;-76
2023/07/06 09:25:54;;;;;;;4.45;0.85;;;17.60;99.90;;;;;;4943978;29;20043;-76
2023/07/06 09:28:29;;;;;;;0.70;0.65;;;17.60;99.90;;;;;;4943022;29;20062;-76
2023/07/06 09:31:19;;;;;;;1.23;1.00;;;17.70;99.90;;;;;;4944918;28;20047;-76
2023/07/06 09:33:50;;;;;;;1.98;1.40;;;17.80;99.90;;;;;;4944698;28;20050;-76
2023/07/06 09:36:25;;;;;;;1.02;0.95;;;17.80;99.90;;;;;;4944470;28;20051;-76
2023/07/06 09:38:51;;;;;;;1.52;0.70;;;17.90;99.90;;;;;;4942550;29;20051;-76
2023/07/06 09:41:26;;;;;;;2.85;0.82;;;17.90;99.90;;;;;;4943387;28;20040;-76
2023/07/06 09:43:57;;;;;;;5.65;1.50;;;17.90;99.90;;;;;;4944806;28;20043;-76
2023/07/06 09:46:33;;;;;;;1.13;0.82;;;17.90;99.90;;;;;;4943029;29;20200;-76
2023/07/06 09:48:59;;;;;;;2.88;1.08;;;18.00;99.90;;;;;;4943684;29;20130;-76
2023/07/06 09:51:37;;;;;;;3.42;1.67;;;18.00;99.90;;;;;;4944702;28;20122;-76
2023/07/06 09:54:11;;;;;;;2.65;1.30;;;18.00;99.90;;;;;;4944175;28;20054;-76
2023/07/06 09:56:38;;;;;;;2.22;1.25;;;17.90;99.90;;;;;;4943578;28;20523;-76
2023/07/06 09:59:04;;;;;;;1.35;1.25;;;17.90;99.90;;;;;;4948061;28;20043;-76
2023/07/06 10:02:01;;;;;;;2.92;1.20;;;17.80;99.90;;;;;;4944210;28;20059;-76
2023/07/06 10:04:46;;;;;;;2.95;1.23;;;17.80;99.90;;;;;;4929448;29;20491;-76
2023/07/06 10:07:19;;;;;;;4.25;1.00;;;17.80;99.90;;;;;;4927547;29;20040;-76
2023/07/06 10:10:28;;;;;;;1.90;1.23;;;17.90;99.90;;;;;;4928280;29;20138;-76
2023/07/06 10:13:31;;;;;;;2.28;1.40;;;17.90;99.90;;;;;;4917831;29;20051;-76
2023/07/06 10:16:11;;;;;;;4.60;1.33;;;17.90;99.90;;;;;;4920569;29;20099;-76
2023/07/06 10:19:01;;;;;;;2.97;1.60;;;17.80;99.90;;;;;;4928625;29;20083;-76
2023/07/06 10:21:46;;;;;;;1.85;1.35;;;17.80;99.90;;;;;;4927360;29;20044;-76
2023/07/06 10:24:37;;;;;;;2.25;1.30;;;17.80;99.90;;;;;;4927947;29;20039;-76
2023/07/06 10:27:06;;;;;;;2.55;1.70;;;17.90;99.90;;;;;;4927051;29;20047;-76
2023/07/06 10:29:45;;;;;;;3.03;1.83;;;18.00;99.90;;;;;;4929066;29;20046;-76
2023/07/06 10:32:28;;;;;;;1.27;0.85;;;17.90;99.90;;;;;;4927920;29;20394;-76
2023/07/06 10:35:28;;;;;;;3.72;1.08;;;18.00;99.90;;;;;;4927356;29;20048;-76
2023/07/06 10:37:54;;;;;;;3.42;1.60;;;18.20;99.90;;;;;;4924056;29;20146;-76
2023/07/06 10:40:26;;;;;;;1.35;1.00;;;18.40;99.90;;;;;;4926777;29;20126;-76
2023/07/06 10:43:12;;;;;;;1.20;0.80;;;18.40;99.90;;;;;;4936917;29;20039;-76
2023/07/06 10:45:56;;;;;;;1.58;1.00;;;18.50;99.90;;;;;;4948120;28;20058;-75
2023/07/06 10:48:24;;;;;;;2.25;1.00;;;18.60;99.90;;;;;;4941661;29;20132;-75
2023/07/06 10:50:51;;;;;;;0.80;0.80;;;18.50;99.90;;;;;;4946619;29;20225;-76
2023/07/06 10:53:26;;;;;;;3.78;1.10;;;18.40;99.90;;;;;;4938935;29;20718;-76
2023/07/06 10:56:02;;;;;;;1.10;0.80;;;18.40;99.90;;;;;;4947353;28;20074;-76
2023/07/06 10:58:29;;;;;;;0.88;0.70;;;18.50;99.90;;;;;;4944770;29;20049;-76
2023/07/06 11:00:57;;;;;;;2.80;1.00;;;18.60;99.90;;;;;;4947357;29;20115;-76
2023/07/06 11:03:31;;;;;;;0.80;0.80;;;18.70;99.90;;;;;;4948231;28;20055;-76
2023/07/06 11:06:13;;;;;;;0.95;0.60;;;18.80;99.90;;;;;;4946406;29;20055;-76
2023/07/06 11:09:03;;;;;;;2.28;0.90;;;18.80;99.90;;;;;;4946773;28;20047;-76
2023/07/06 11:11:32;;;;;;;3.83;0.98;;;18.80;99.90;;;;;;4946946;29;20059;-76
2023/07/06 11:14:18;;;;;;;3.53;0.80;;;18.80;99.90;;;;;;4948418;28;20055;-76
2023/07/06 11:16:50;;;;;;;3.00;1.60;;;18.80;99.90;;;;;;4946989;29;20065;-76
2023/07/06 11:19:24;;;;;;;2.65;0.80;;;18.80;99.90;;;;;;4946528;29;20050;-76
2023/07/06 11:21:53;;;;;;;1.13;0.75;;;18.80;99.90;;;;;;4929947;29;20065;-76
2023/07/06 11:24:25;;;;;;;1.08;0.88;;;18.80;99.90;;;;;;4947182;28;20057;-76
2023/07/06 11:27:03;;;;;;;2.90;0.73;;;18.70;99.90;;;;;;4947899;28;20043;-76
2023/07/06 11:29:30;;;;;;;1.33;0.70;;;18.70;99.90;;;;;;4946375;29;20129;-76
2023/07/06 11:32:34;;;;;;;0.80;0.80;;;18.70;99.90;;;;;;4946981;29;20043;-76
2023/07/06 11:35:12;;;;;;;3.08;1.20;;;18.80;99.90;;;;;;4930182;29;20098;-76
2023/07/06 11:38:26;;;;;;;0.68;0.68;;;18.90;99.90;;;;;;4930201;29;20110;-76
2023/07/06 11:41:24;;;;;;;1.52;0.90;;;18.90;99.90;;;;;;4942872;28;20042;-76
2023/07/06 11:44:14;;;;;;;2.50;1.13;;;18.80;99.90;;;;;;4945661;29;20653;-76
2023/07/06 11:47:08;;;;;;;1.00;0.90;;;18.80;99.90;;;;;;4934764;29;20395;-76
2023/07/06 11:49:40;;;;;;;1.48;1.10;;;18.90;99.90;;;;;;4942009;29;20985;-76
2023/07/06 11:52:22;;;;;;;3.70;1.42;;;19.00;99.90;;;;;;4944303;29;20051;-76
2023/07/06 11:55:05;;;;;;;2.15;0.77;;;19.10;99.90;;;;;;4945057;28;20043;-76
2023/07/06 11:57:54;;;;;;;1.98;0.90;;;19.10;99.90;;;;;;4944705;29;20081;-76
2023/07/06 12:03:09;;;;;;;1.88;1.10;;;19.30;99.90;;;;;;4947080;28;20051;-76
2023/07/06 12:05:38;;;;;;;1.85;0.82;;;19.30;99.90;;;;;;4946352;28;20051;-76
2023/07/06 12:08:14;;;;;;;1.40;1.00;;;19.30;99.90;;;;;;4932567;29;20070;-75
2023/07/06 12:10:45;;;;;;;0.88;0.85;;;19.30;99.90;;;;;;4943764;29;20055;-76
2023/07/06 12:13:25;;;;;;;3.38;1.00;;;19.30;99.90;;;;;;4946235;28;20268;-76
2023/07/06 12:16:17;;;;;;;2.45;1.42;;;19.40;99.90;;;;;;4944016;29;20666;-76
2023/07/06 12:18:47;;;;;;;3.17;1.25;;;19.40;99.90;;;;;;4919720;29;20060;-76
2023/07/06 12:21:34;;;;;;;2.75;1.40;;;19.40;99.90;;;;;;4931807;29;20098;-76
2023/07/06 12:24:02;;;;;;;5.22;0.90;;;19.50;99.90;;;;;;4926517;29;20044;-76
2023/07/06 12:26:29;;;;;;;1.20;0.80;;;19.60;99.90;;;;;;4927858;29;20400;-76
2023/07/06 12:28:57;;;;;;;1.65;1.20;;;19.60;99.90;;;;;;4927585;29;20039;-76
2023/07/06 12:31:24;;;;;;;3.15;1.20;;;19.60;99.90;;;;;;4939378;29;20070;-76
2023/07/06 12:33:59;;;;;;;4.72;1.75;;;19.60;99.90;;;;;;4946489;28;20520;-76
2023/07/06 12:36:29;;;;;;;3.70;0.90;;;19.60;99.90;;;;;;4946579;28;20130;-75
2023/07/06 12:38:56;;;;;;;2.35;1.02;;;19.50;99.90;;;;;;4945896;28;20126;-75
2023/07/06 12:41:22;;;;;;;2.83;1.10;;;19.50;99.90;;;;;;4946091;28;20039;-76
2023/07/06 12:43:49;;;;;;;5.60;1.15;;;19.60;99.90;;;;;;4945043;29;20544;-76
2023/07/06 12:46:21;;;;;;;1.25;0.95;;;19.60;99.90;;;;;;4945769;28;20750;-76
2023/07/06 12:48:53;;;;;;;0.93;0.90;;;19.50;99.90;;;;;;4945748;28;20110;-76
2023/07/06 12:51:23;;;;;;;1.20;0.82;;;19.50;99.90;;;;;;4945989;28;20135;-76
2023/07/06 12:53:54;;;;;;;2.72;0.80;;;19.40;99.90;;;;;;4943625;29;20054;-76
2023/07/06 12:56:23;;;;;;;1.10;0.60;;;19.40;99.90;;;;;;4948037;28;20073;-77
2023/07/06 12:59:03;;;;;;;2.92;1.08;;;19.50;99.90;;;;;;4944120;28;20185;-78
2023/07/06 13:01:32;;;;;;;1.85;0.93;;;19.50;99.90;;;;;;4945947;28;20075;-77
2023/07/06 13:04:12;;;;;;;1.02;0.93;;;19.60;99.90;;;;;;4951048;28;20061;-78
2023/07/06 13:06:52;;;;;;;2.00;0.85;;;19.60;99.90;;;;;;4964819;28;20548;-81
2023/07/06 13:09:34;;;;;;;2.08;1.23;;;19.60;99.90;;;;;;4946237;28;20043;-78